Pulaski, Iowa
Current Conditions -  °F | °C
As of 6:35 AM on Friday 24 Oct 2014 (Local Time) from KFFL Reporting Station
Overcast Overcast  
Wind Chill: 50°   Ceiling: 200
Heat Index: 50°   Visibility: NA
Dew Point: 50°   Wind: 3mph
Humidity: 100%   Direction: 190°S
Pressure: 30.05"   Gusts: NA
Location:  40.7°N, 92.27°W
Report Text: KFFL 241135Z AUTO 19003KT OVC002 10/10 A3005 RMK AO2
Loading
Personal Weather Stations






























Interactive Weather Map
Tropical Storm Tracking
New forecast layout! Learn more

10-Day Weather Forecast

Advertisements
Track Severe Weather on mobile